createdAt,value
2019-03-17T00:02:11.488Z,99.90
2019-03-17T00:04:39.873Z,99.90
2019-03-17T00:07:08.255Z,99.90
2019-03-17T00:09:36.661Z,99.90
2019-03-17T00:12:05.047Z,99.90
2019-03-17T00:14:33.431Z,99.90
2019-03-17T00:17:01.839Z,99.90
2019-03-17T00:19:30.219Z,99.90
2019-03-17T00:21:58.644Z,99.90
2019-03-17T00:24:27.037Z,99.90
2019-03-17T00:26:55.418Z,99.90
2019-03-17T00:29:23.829Z,99.90
2019-03-17T00:31:52.212Z,99.90
2019-03-17T00:34:20.593Z,99.90
2019-03-17T00:36:49.011Z,99.90
2019-03-17T00:39:17.396Z,99.90
2019-03-17T00:41:45.802Z,99.90
2019-03-17T00:44:14.203Z,99.90
2019-03-17T00:46:42.593Z,99.90
2019-03-17T00:49:10.987Z,99.90
2019-03-17T00:51:39.619Z,99.90
2019-03-17T00:54:08.083Z,99.90
2019-03-17T00:56:36.463Z,99.90
2019-03-17T00:59:04.859Z,99.90
2019-03-17T01:01:33.257Z,99.90
2019-03-17T01:04:01.660Z,99.90
2019-03-17T01:06:30.052Z,99.90
2019-03-17T01:08:58.439Z,99.90
2019-03-17T01:11:26.833Z,99.90
2019-03-17T01:13:55.219Z,99.90
2019-03-17T01:16:23.610Z,99.90
2019-03-17T01:18:51.995Z,99.90
2019-03-17T01:21:20.653Z,99.90
2019-03-17T01:23:49.040Z,99.90
2019-03-17T01:26:17.431Z,99.90
2019-03-17T01:28:45.856Z,99.90
2019-03-17T01:31:14.243Z,99.90
2019-03-17T01:33:42.631Z,99.90
2019-03-17T01:36:11.028Z,99.90
2019-03-17T01:38:39.411Z,99.90
2019-03-17T01:41:07.811Z,99.90
2019-03-17T01:43:36.217Z,99.90
2019-03-17T01:46:04.603Z,99.90
2019-03-17T01:48:33.007Z,99.90
2019-03-17T01:51:01.407Z,99.90
2019-03-17T01:53:29.799Z,99.90
2019-03-17T01:55:58.187Z,99.90
2019-03-17T01:58:26.599Z,99.90
2019-03-17T02:00:54.975Z,99.90
2019-03-17T02:03:23.383Z,99.90
2019-03-17T02:05:51.817Z,99.90
2019-03-17T02:08:20.197Z,99.90
2019-03-17T02:10:48.588Z,99.90
2019-03-17T02:13:16.983Z,99.90
2019-03-17T02:15:45.372Z,99.90
2019-03-17T02:18:13.791Z,99.90
2019-03-17T02:20:42.182Z,99.90
2019-03-17T02:23:10.567Z,99.90
2019-03-17T02:25:38.963Z,99.90
2019-03-17T02:28:07.357Z,99.90
2019-03-17T02:30:35.736Z,99.90
2019-03-17T02:33:04.127Z,99.90
2019-03-17T02:35:39.684Z,99.90
2019-03-17T02:38:02.676Z,99.90
2019-03-17T02:40:31.112Z,99.90
2019-03-17T02:42:59.511Z,99.90
2019-03-17T02:45:27.907Z,99.90
2019-03-17T02:47:56.288Z,99.90
2019-03-17T02:50:24.676Z,99.90
2019-03-17T02:52:53.076Z,99.90
2019-03-17T02:55:23.008Z,99.90
2019-03-17T02:57:51.428Z,99.90
2019-03-17T03:00:19.825Z,99.90
2019-03-17T03:02:48.213Z,99.90
2019-03-17T03:05:16.597Z,99.90
2019-03-17T03:07:44.990Z,99.90
2019-03-17T03:10:13.452Z,99.90
2019-03-17T03:12:41.840Z,99.90
2019-03-17T03:15:10.367Z,99.90
2019-03-17T03:17:38.780Z,99.90
2019-03-17T03:20:09.419Z,99.90
2019-03-17T03:22:37.804Z,99.90
2019-03-17T03:25:08.132Z,99.90
2019-03-17T03:27:36.492Z,99.90
2019-03-17T03:30:13.255Z,99.90
2019-03-17T03:32:41.787Z,99.90
2019-03-17T03:35:10.352Z,99.90
2019-03-17T03:37:38.794Z,99.90
2019-03-17T03:40:09.779Z,99.90
2019-03-17T03:42:38.175Z,99.90
2019-03-17T03:45:11.101Z,99.90
2019-03-17T03:47:39.492Z,99.90
2019-03-17T03:50:11.733Z,99.90
2019-03-17T03:52:40.115Z,99.90
2019-03-17T03:55:09.444Z,99.90
2019-03-17T03:57:37.835Z,99.90
2019-03-17T04:00:09.527Z,99.90
2019-03-17T04:02:37.983Z,99.90
2019-03-17T04:05:07.334Z,99.90
2019-03-17T04:07:35.732Z,99.90
2019-03-17T04:10:05.959Z,99.90
2019-03-17T04:12:34.356Z,99.90
2019-03-17T04:15:02.756Z,99.90
2019-03-17T04:17:31.381Z,99.90
2019-03-17T04:19:59.772Z,99.90
2019-03-17T04:22:28.172Z,99.90
2019-03-17T04:24:56.560Z,99.90
2019-03-17T04:27:24.948Z,99.90
2019-03-17T04:29:53.355Z,99.90
2019-03-17T04:32:21.719Z,99.90
2019-03-17T04:34:50.107Z,99.90
2019-03-17T04:37:18.520Z,99.90
2019-03-17T04:39:46.910Z,99.90
2019-03-17T04:42:15.315Z,99.90
2019-03-17T04:44:43.679Z,99.90
2019-03-17T04:47:12.083Z,99.90
2019-03-17T04:49:40.481Z,99.90
2019-03-17T04:52:08.880Z,99.90
2019-03-17T04:54:37.285Z,99.90
2019-03-17T04:57:05.752Z,99.90
2019-03-17T04:59:34.216Z,99.90
2019-03-17T05:02:02.619Z,99.90
2019-03-17T05:04:31.015Z,99.90
2019-03-17T05:06:59.415Z,99.90
2019-03-17T05:09:27.847Z,99.90
2019-03-17T05:11:56.295Z,99.90
2019-03-17T05:14:24.889Z,99.90
2019-03-17T05:16:53.339Z,99.90
2019-03-17T05:19:21.739Z,99.90
2019-03-17T05:21:50.127Z,99.90
2019-03-17T05:24:18.511Z,99.90
2019-03-17T05:26:46.903Z,99.90
2019-03-17T05:29:15.296Z,99.90
2019-03-17T05:31:43.684Z,99.90
2019-03-17T05:34:12.072Z,99.90
2019-03-17T05:36:40.462Z,99.90
2019-03-17T05:39:09.072Z,99.90
2019-03-17T05:41:37.472Z,99.90
2019-03-17T05:44:05.863Z,99.90
2019-03-17T05:46:34.247Z,99.90
2019-03-17T05:49:02.637Z,99.90
2019-03-17T05:51:31.029Z,99.90
2019-03-17T05:53:59.410Z,99.90
2019-03-17T05:56:27.797Z,99.90
2019-03-17T05:58:56.180Z,99.90
2019-03-17T06:04:02.455Z,99.90
2019-03-17T06:06:30.852Z,99.90
2019-03-17T06:08:59.251Z,99.90
2019-03-17T06:11:27.651Z,99.90
2019-03-17T06:13:56.039Z,99.90
2019-03-17T06:16:24.449Z,99.90
2019-03-17T06:18:52.835Z,99.90
2019-03-17T06:21:21.231Z,99.90
2019-03-17T06:23:49.634Z,99.90
2019-03-17T06:26:18.024Z,99.90
2019-03-17T06:28:46.415Z,99.90
2019-03-17T06:31:14.904Z,99.90
2019-03-17T06:33:43.302Z,99.90
2019-03-17T06:36:11.741Z,99.90
2019-03-17T06:38:40.139Z,99.90
2019-03-17T06:41:08.625Z,99.90
2019-03-17T06:43:37.031Z,99.90
2019-03-17T06:46:05.421Z,99.90
2019-03-17T06:48:35.178Z,99.90
2019-03-17T06:53:55.504Z,99.90
2019-03-17T06:56:13.075Z,99.90
2019-03-17T06:58:41.466Z,99.90
2019-03-17T07:01:09.868Z,99.90
2019-03-17T07:03:38.255Z,99.90
2019-03-17T07:06:06.649Z,99.90
2019-03-17T07:08:35.064Z,99.90
2019-03-17T07:11:03.451Z,99.90
2019-03-17T07:13:31.854Z,99.90
2019-03-17T07:16:00.245Z,99.90
2019-03-17T07:18:28.640Z,99.90
2019-03-17T07:20:57.038Z,99.90
2019-03-17T07:23:25.421Z,99.90
2019-03-17T07:25:53.815Z,99.90
2019-03-17T07:28:22.558Z,99.90
2019-03-17T07:30:50.950Z,99.90
2019-03-17T07:33:19.340Z,99.90
2019-03-17T07:35:47.740Z,99.90
2019-03-17T07:38:16.124Z,99.90
2019-03-17T07:40:44.567Z,99.90
2019-03-17T07:43:13.048Z,99.90
2019-03-17T07:45:41.436Z,99.90
2019-03-17T07:48:09.821Z,99.90
2019-03-17T07:50:38.226Z,99.90
2019-03-17T07:53:06.618Z,99.90
2019-03-17T07:55:35.086Z,99.90
2019-03-17T07:58:03.610Z,99.90
2019-03-17T08:00:32.552Z,99.90
2019-03-17T08:03:01.075Z,99.90
2019-03-17T08:05:29.538Z,99.90
2019-03-17T08:08:08.775Z,99.90
2019-03-17T08:10:28.181Z,99.90
2019-03-17T08:12:56.595Z,99.90
2019-03-17T08:15:24.996Z,99.90
2019-03-17T08:17:53.395Z,99.90
2019-03-17T08:20:21.806Z,99.90
2019-03-17T08:22:50.207Z,99.90
2019-03-17T08:25:18.588Z,99.90
2019-03-17T08:27:47.015Z,99.90
2019-03-17T08:30:16.648Z,99.90
2019-03-17T08:32:45.033Z,99.90
2019-03-17T08:35:13.432Z,99.90
2019-03-17T08:37:41.825Z,99.90
2019-03-17T08:40:12.460Z,99.90
2019-03-17T08:42:40.892Z,99.90
2019-03-17T08:45:11.437Z,99.90
2019-03-17T08:47:39.825Z,99.90
2019-03-17T08:50:15.379Z,99.90
2019-03-17T08:52:43.788Z,99.90
2019-03-17T08:55:12.623Z,99.90
2019-03-17T08:57:41.095Z,99.90
2019-03-17T09:00:19.789Z,99.90
2019-03-17T09:02:48.230Z,99.90
2019-03-17T09:05:16.722Z,99.90
2019-03-17T09:07:45.356Z,99.90
2019-03-17T09:10:14.889Z,99.90
2019-03-17T09:12:43.283Z,99.90
2019-03-17T09:15:11.704Z,99.90
2019-03-17T09:17:40.189Z,99.90
2019-03-17T09:20:13.646Z,99.90
2019-03-17T09:22:42.027Z,99.90
2019-03-17T09:25:11.116Z,99.90
2019-03-17T09:27:39.642Z,99.90
2019-03-17T09:30:13.695Z,99.90
2019-03-17T09:32:42.340Z,99.90
2019-03-17T09:35:11.011Z,99.90
2019-03-17T09:37:39.575Z,99.90
2019-03-17T09:40:13.102Z,99.90
2019-03-17T09:42:41.659Z,99.90
2019-03-17T09:45:14.317Z,99.90
2019-03-17T09:47:42.721Z,99.90
2019-03-17T09:50:18.831Z,99.90
2019-03-17T09:52:47.235Z,99.90
2019-03-17T09:55:15.789Z,99.90
2019-03-17T09:57:45.541Z,99.90
2019-03-17T10:00:22.065Z,99.90
2019-03-17T10:02:50.479Z,99.90
2019-03-17T10:05:18.950Z,99.90
2019-03-17T10:07:47.365Z,99.90
2019-03-17T10:10:17.995Z,97.30
2019-03-17T10:12:46.400Z,97.00
2019-03-17T10:15:19.705Z,95.80
2019-03-17T10:20:19.812Z,99.90
2019-03-17T10:22:48.216Z,99.90
2019-03-17T10:25:16.710Z,99.90
2019-03-17T10:27:45.079Z,99.90
2019-03-17T10:30:16.604Z,99.90
2019-03-17T10:32:45.015Z,99.90
2019-03-17T10:35:13.568Z,99.90
2019-03-17T10:37:42.260Z,99.90
2019-03-17T10:40:21.549Z,99.90
2019-03-17T10:42:50.114Z,99.90
2019-03-17T10:47:46.594Z,99.90
2019-03-17T10:52:44.695Z,99.90
2019-03-17T10:55:13.551Z,99.90
2019-03-17T10:57:42.222Z,99.90
2019-03-17T11:00:20.565Z,99.90
2019-03-17T11:02:48.966Z,99.90
2019-03-17T11:05:17.422Z,99.90
2019-03-17T11:07:45.909Z,99.90
2019-03-17T11:10:14.745Z,99.90
2019-03-17T11:12:43.156Z,99.90
2019-03-17T11:15:16.790Z,99.90
2019-03-17T11:17:45.456Z,99.90
2019-03-17T11:20:14.290Z,99.90
2019-03-17T11:22:42.833Z,99.90
2019-03-17T11:25:16.248Z,99.90
2019-03-17T11:27:44.690Z,99.90
2019-03-17T11:30:20.316Z,99.90
2019-03-17T11:32:48.751Z,99.90
2019-03-17T11:35:17.234Z,99.90
2019-03-17T11:37:45.650Z,99.90
2019-03-17T11:40:18.961Z,99.90
2019-03-17T11:42:49.884Z,99.90
2019-03-17T11:45:18.116Z,99.90
2019-03-17T11:47:46.665Z,99.90
2019-03-17T11:50:20.178Z,99.90
2019-03-17T11:52:48.805Z,99.90
2019-03-17T11:55:17.502Z,99.90
2019-03-17T11:57:46.135Z,99.90
2019-03-17T12:00:22.576Z,99.90
2019-03-17T12:02:50.986Z,99.90
2019-03-17T12:05:19.386Z,99.90
2019-03-17T12:07:47.795Z,99.90
2019-03-17T12:10:23.092Z,99.90
2019-03-17T12:12:51.573Z,99.90
2019-03-17T12:15:34.480Z,99.90
2019-03-17T12:18:02.931Z,99.50
2019-03-17T12:20:31.337Z,99.10
2019-03-17T12:22:59.838Z,97.90
2019-03-17T12:25:28.232Z,98.40
2019-03-17T12:27:56.640Z,97.50
2019-03-17T12:30:28.304Z,96.80
2019-03-17T12:32:56.771Z,96.20
2019-03-17T12:35:25.257Z,96.30
2019-03-17T12:37:53.656Z,93.50
2019-03-17T12:40:22.128Z,90.40
2019-03-17T12:42:50.567Z,91.10
2019-03-17T12:45:18.999Z,92.30
2019-03-17T12:47:47.452Z,91.30
2019-03-17T12:50:18.958Z,87.30
2019-03-17T12:52:47.372Z,85.90
2019-03-17T12:55:15.788Z,86.20
2019-03-17T12:57:44.214Z,87.30
2019-03-17T13:00:15.841Z,85.70
2019-03-17T13:02:44.276Z,85.50
2019-03-17T13:05:13.024Z,84.70
2019-03-17T13:07:41.549Z,82.30
2019-03-17T13:10:17.459Z,84.10
2019-03-17T13:12:45.956Z,80.80
2019-03-17T13:15:14.350Z,79.50
2019-03-17T13:17:42.736Z,81.40
2019-03-17T13:20:15.019Z,79.20
2019-03-17T13:22:43.438Z,76.40
2019-03-17T13:25:12.597Z,73.10
2019-03-17T13:27:41.305Z,74.20
2019-03-17T13:30:12.440Z,72.50
2019-03-17T13:32:40.844Z,71.20
2019-03-17T13:35:10.252Z,73.60
2019-03-17T13:37:38.801Z,74.20
2019-03-17T13:40:29.579Z,76.80
2019-03-17T13:42:51.373Z,83.50
2019-03-17T13:45:19.768Z,88.40
2019-03-17T13:47:48.215Z,91.00
2019-03-17T13:50:20.439Z,92.70
2019-03-17T13:52:50.319Z,97.80
2019-03-17T13:55:18.752Z,94.90
2019-03-17T13:57:55.839Z,93.90
2019-03-17T14:00:24.242Z,92.80
2019-03-17T14:02:52.644Z,90.60
2019-03-17T14:05:21.080Z,91.30
2019-03-17T14:07:49.490Z,90.30
2019-03-17T14:10:18.632Z,88.90
2019-03-17T14:12:47.066Z,84.90
2019-03-17T14:15:15.784Z,83.70
2019-03-17T14:17:45.916Z,83.00
2019-03-17T14:20:22.236Z,84.90
2019-03-17T14:22:50.628Z,82.80
2019-03-17T14:25:31.588Z,83.50
2019-03-17T14:28:00.207Z,85.90
2019-03-17T14:30:28.619Z,86.80
2019-03-17T14:32:57.019Z,87.90
2019-03-17T14:35:25.416Z,87.20
2019-03-17T14:37:53.823Z,89.20
2019-03-17T14:40:22.223Z,88.80
2019-03-17T14:42:51.115Z,88.90
2019-03-17T14:45:19.534Z,88.80
2019-03-17T14:47:47.995Z,88.30
2019-03-17T14:50:20.229Z,89.50
2019-03-17T14:52:48.653Z,90.80
2019-03-17T14:55:17.048Z,90.90
2019-03-17T15:02:42.843Z,91.20
2019-03-17T15:05:11.472Z,91.80
2019-03-17T15:07:39.934Z,91.90
2019-03-17T15:10:14.130Z,92.70
2019-03-17T15:12:42.550Z,94.10
2019-03-17T15:15:13.305Z,95.00
2019-03-17T15:17:41.751Z,94.50
2019-03-17T15:20:21.413Z,94.80
2019-03-17T15:22:51.941Z,94.00
2019-03-17T15:25:24.878Z,93.40
2019-03-17T15:27:53.335Z,91.90
2019-03-17T15:30:32.553Z,92.10
2019-03-17T15:33:00.986Z,92.30
2019-03-17T15:35:29.386Z,92.80
2019-03-17T15:37:58.964Z,92.80
2019-03-17T15:40:27.456Z,93.00
2019-03-17T15:42:56.189Z,93.50
2019-03-17T15:45:25.232Z,93.60
2019-03-17T15:47:53.742Z,94.00
2019-03-17T15:50:28.732Z,94.70
2019-03-17T15:52:57.192Z,94.60
2019-03-17T15:55:26.166Z,94.50
2019-03-17T15:57:55.140Z,93.70
2019-03-17T16:00:26.321Z,94.00
2019-03-17T16:02:54.432Z,93.30
2019-03-17T16:05:22.969Z,93.10
2019-03-17T16:07:51.443Z,93.30
2019-03-17T16:10:21.772Z,93.40
2019-03-17T16:12:50.233Z,93.20
2019-03-17T16:15:19.122Z,93.60
2019-03-17T16:17:47.523Z,93.40
2019-03-17T16:20:22.782Z,93.90
2019-03-17T16:22:51.303Z,94.60
2019-03-17T16:25:28.916Z,95.70
2019-03-17T16:27:57.323Z,97.70
2019-03-17T16:30:28.321Z,97.90
2019-03-17T16:32:56.867Z,98.30
